sensor_id;sensor_type;location;lat;lon;timestamp;P1;durP1;ratioP1;P2;durP2;ratioP2
28431;SDS011;15664;51.302;7.744;2023-05-10T00:01:29;3.07;;;1.30;;
28431;SDS011;15664;51.302;7.744;2023-05-10T00:03:55;2.67;;;1.10;;
28431;SDS011;15664;51.302;7.744;2023-05-10T00:06:20;3.97;;;1.02;;
28431;SDS011;15664;51.302;7.744;2023-05-10T00:08:46;1.87;;;0.70;;
28431;SDS011;15664;51.302;7.744;2023-05-10T00:11:11;2.97;;;1.03;;
28431;SDS011;15664;51.302;7.744;2023-05-10T00:13:37;3.80;;;1.35;;
28431;SDS011;15664;51.302;7.744;2023-05-10T00:16:02;4.13;;;1.27;;
28431;SDS011;15664;51.302;7.744;2023-05-10T00:18:28;4.23;;;1.50;;
28431;SDS011;15664;51.302;7.744;2023-05-10T00:20:53;2.58;;;1.10;;
28431;SDS011;15664;51.302;7.744;2023-05-10T00:23:19;1.90;;;1.00;;
28431;SDS011;15664;51.302;7.744;2023-05-10T00:25:45;3.65;;;1.23;;
28431;SDS011;15664;51.302;7.744;2023-05-10T00:28:10;2.55;;;1.17;;
28431;SDS011;15664;51.302;7.744;2023-05-10T00:30:36;3.03;;;1.30;;
28431;SDS011;15664;51.302;7.744;2023-05-10T00:33:02;3.73;;;1.43;;
28431;SDS011;15664;51.302;7.744;2023-05-10T00:35:27;2.25;;;0.82;;
28431;SDS011;15664;51.302;7.744;2023-05-10T00:37:53;2.40;;;1.10;;
28431;SDS011;15664;51.302;7.744;2023-05-10T00:40:19;2.90;;;1.20;;
28431;SDS011;15664;51.302;7.744;2023-05-10T00:42:49;3.25;;;1.40;;
28431;SDS011;15664;51.302;7.744;2023-05-10T00:45:15;2.67;;;0.90;;
28431;SDS011;15664;51.302;7.744;2023-05-10T00:47:41;1.73;;;0.90;;
28431;SDS011;15664;51.302;7.744;2023-05-10T00:50:06;2.55;;;1.00;;
28431;SDS011;15664;51.302;7.744;2023-05-10T00:52:32;2.17;;;0.70;;
28431;SDS011;15664;51.302;7.744;2023-05-10T00:54:58;1.23;;;0.70;;
28431;SDS011;15664;51.302;7.744;2023-05-10T00:57:24;2.07;;;0.80;;
28431;SDS011;15664;51.302;7.744;2023-05-10T00:59:50;2.47;;;1.13;;
28431;SDS011;15664;51.302;7.744;2023-05-10T01:02:15;2.30;;;1.00;;
28431;SDS011;15664;51.302;7.744;2023-05-10T01:04:40;1.77;;;1.00;;
28431;SDS011;15664;51.302;7.744;2023-05-10T01:07:06;1.75;;;0.90;;
28431;SDS011;15664;51.302;7.744;2023-05-10T01:09:31;2.00;;;0.87;;
28431;SDS011;15664;51.302;7.744;2023-05-10T01:11:57;2.57;;;1.10;;
28431;SDS011;15664;51.302;7.744;2023-05-10T01:14:23;2.38;;;0.95;;
28431;SDS011;15664;51.302;7.744;2023-05-10T01:16:50;2.13;;;0.90;;
28431;SDS011;15664;51.302;7.744;2023-05-10T01:19:19;2.30;;;1.00;;
28431;SDS011;15664;51.302;7.744;2023-05-10T01:34:42;1.92;;;0.93;;
28431;SDS011;15664;51.302;7.744;2023-05-10T01:37:13;2.45;;;0.95;;
28431;SDS011;15664;51.302;7.744;2023-05-10T01:39:44;1.63;;;0.70;;
28431;SDS011;15664;51.302;7.744;2023-05-10T01:42:11;2.50;;;1.10;;
28431;SDS011;15664;51.302;7.744;2023-05-10T01:47:17;2.17;;;1.08;;
28431;SDS011;15664;51.302;7.744;2023-05-10T01:49:45;2.95;;;0.95;;
28431;SDS011;15664;51.302;7.744;2023-05-10T01:52:15;3.30;;;1.38;;
28431;SDS011;15664;51.302;7.744;2023-05-10T01:54:44;5.30;;;1.27;;
28431;SDS011;15664;51.302;7.744;2023-05-10T01:57:11;5.35;;;2.80;;
28431;SDS011;15664;51.302;7.744;2023-05-10T01:59:39;3.90;;;1.35;;
28431;SDS011;15664;51.302;7.744;2023-05-10T02:02:06;4.03;;;1.40;;
28431;SDS011;15664;51.302;7.744;2023-05-10T02:04:32;3.47;;;1.40;;
28431;SDS011;15664;51.302;7.744;2023-05-10T02:07:00;5.03;;;1.70;;
28431;SDS011;15664;51.302;7.744;2023-05-10T02:09:25;3.53;;;1.35;;
28431;SDS011;15664;51.302;7.744;2023-05-10T02:11:53;4.45;;;1.60;;
28431;SDS011;15664;51.302;7.744;2023-05-10T02:14:19;5.38;;;1.75;;
28431;SDS011;15664;51.302;7.744;2023-05-10T02:16:45;5.13;;;1.77;;
28431;SDS011;15664;51.302;7.744;2023-05-10T02:19:11;4.03;;;1.47;;
28431;SDS011;15664;51.302;7.744;2023-05-10T02:21:37;4.32;;;1.25;;
28431;SDS011;15664;51.302;7.744;2023-05-10T02:24:03;5.10;;;1.58;;
28431;SDS011;15664;51.302;7.744;2023-05-10T02:26:29;2.97;;;1.25;;
28431;SDS011;15664;51.302;7.744;2023-05-10T02:28:55;2.97;;;1.00;;
28431;SDS011;15664;51.302;7.744;2023-05-10T02:31:22;5.97;;;1.77;;
28431;SDS011;15664;51.302;7.744;2023-05-10T02:33:48;4.75;;;1.63;;
28431;SDS011;15664;51.302;7.744;2023-05-10T02:36:13;2.80;;;1.17;;
28431;SDS011;15664;51.302;7.744;2023-05-10T02:38:40;4.03;;;1.42;;
28431;SDS011;15664;51.302;7.744;2023-05-10T02:41:06;4.20;;;1.85;;
28431;SDS011;15664;51.302;7.744;2023-05-10T02:43:33;4.90;;;1.70;;
28431;SDS011;15664;51.302;7.744;2023-05-10T02:45:59;5.20;;;1.70;;
28431;SDS011;15664;51.302;7.744;2023-05-10T02:48:24;4.13;;;1.67;;
28431;SDS011;15664;51.302;7.744;2023-05-10T02:50:50;5.30;;;2.17;;
28431;SDS011;15664;51.302;7.744;2023-05-10T02:53:18;7.97;;;1.65;;
28431;SDS011;15664;51.302;7.744;2023-05-10T02:55:47;4.82;;;1.50;;
28431;SDS011;15664;51.302;7.744;2023-05-10T02:58:14;6.00;;;1.70;;
28431;SDS011;15664;51.302;7.744;2023-05-10T03:00:39;7.17;;;1.93;;
28431;SDS011;15664;51.302;7.744;2023-05-10T03:03:06;4.25;;;1.83;;
28431;SDS011;15664;51.302;7.744;2023-05-10T03:05:32;4.60;;;1.40;;
28431;SDS011;15664;51.302;7.744;2023-05-10T03:08:01;4.93;;;1.77;;
28431;SDS011;15664;51.302;7.744;2023-05-10T03:10:30;5.75;;;2.17;;
28431;SDS011;15664;51.302;7.744;2023-05-10T03:15:48;8.43;;;2.10;;
28431;SDS011;15664;51.302;7.744;2023-05-10T03:18:22;4.87;;;1.63;;
28431;SDS011;15664;51.302;7.744;2023-05-10T03:20:49;3.90;;;1.58;;
28431;SDS011;15664;51.302;7.744;2023-05-10T03:25:44;3.63;;;1.30;;
28431;SDS011;15664;51.302;7.744;2023-05-10T03:28:12;4.53;;;1.63;;
28431;SDS011;15664;51.302;7.744;2023-05-10T03:30:38;3.57;;;1.30;;
28431;SDS011;15664;51.302;7.744;2023-05-10T03:33:07;3.10;;;1.30;;
28431;SDS011;15664;51.302;7.744;2023-05-10T03:35:37;5.25;;;2.10;;
28431;SDS011;15664;51.302;7.744;2023-05-10T03:38:02;7.20;;;1.83;;
28431;SDS011;15664;51.302;7.744;2023-05-10T03:40:28;4.07;;;2.03;;
28431;SDS011;15664;51.302;7.744;2023-05-10T03:42:58;2.80;;;1.30;;
28431;SDS011;15664;51.302;7.744;2023-05-10T03:45:23;4.82;;;1.98;;
28431;SDS011;15664;51.302;7.744;2023-05-10T03:47:49;3.87;;;1.40;;
28431;SDS011;15664;51.302;7.744;2023-05-10T03:50:14;1.75;;;0.82;;
28431;SDS011;15664;51.302;7.744;2023-05-10T03:52:40;2.70;;;1.20;;
28431;SDS011;15664;51.302;7.744;2023-05-10T03:55:05;3.23;;;1.13;;
28431;SDS011;15664;51.302;7.744;2023-05-10T03:57:31;2.25;;;1.05;;
28431;SDS011;15664;51.302;7.744;2023-05-10T03:59:57;2.43;;;1.00;;
28431;SDS011;15664;51.302;7.744;2023-05-10T04:02:22;4.03;;;1.50;;
28431;SDS011;15664;51.302;7.744;2023-05-10T04:04:48;4.30;;;1.60;;
28431;SDS011;15664;51.302;7.744;2023-05-10T04:07:13;4.97;;;1.80;;
28431;SDS011;15664;51.302;7.744;2023-05-10T04:09:39;5.70;;;2.38;;
28431;SDS011;15664;51.302;7.744;2023-05-10T04:12:05;3.63;;;1.67;;
28431;SDS011;15664;51.302;7.744;2023-05-10T04:14:30;5.53;;;2.20;;
28431;SDS011;15664;51.302;7.744;2023-05-10T04:16:56;6.30;;;1.83;;
28431;SDS011;15664;51.302;7.744;2023-05-10T04:19:21;4.38;;;1.70;;
28431;SDS011;15664;51.302;7.744;2023-05-10T04:21:47;5.07;;;2.23;;
28431;SDS011;15664;51.302;7.744;2023-05-10T04:24:12;5.63;;;2.17;;
28431;SDS011;15664;51.302;7.744;2023-05-10T04:26:38;6.37;;;2.43;;
28431;SDS011;15664;51.302;7.744;2023-05-10T04:29:03;7.43;;;2.87;;
28431;SDS011;15664;51.302;7.744;2023-05-10T04:31:28;5.85;;;2.03;;
28431;SDS011;15664;51.302;7.744;2023-05-10T04:33:54;6.03;;;2.40;;
28431;SDS011;15664;51.302;7.744;2023-05-10T04:36:20;7.70;;;2.70;;
28431;SDS011;15664;51.302;7.744;2023-05-10T04:38:45;6.87;;;2.60;;
28431;SDS011;15664;51.302;7.744;2023-05-10T04:41:10;6.73;;;2.50;;
28431;SDS011;15664;51.302;7.744;2023-05-10T04:43:37;7.20;;;2.45;;
28431;SDS011;15664;51.302;7.744;2023-05-10T04:46:02;8.93;;;3.13;;
28431;SDS011;15664;51.302;7.744;2023-05-10T04:48:28;8.00;;;3.07;;
28431;SDS011;15664;51.302;7.744;2023-05-10T04:50:53;8.65;;;2.75;;
28431;SDS011;15664;51.302;7.744;2023-05-10T04:53:19;8.43;;;2.70;;
28431;SDS011;15664;51.302;7.744;2023-05-10T04:55:44;10.97;;;2.90;;
28431;SDS011;15664;51.302;7.744;2023-05-10T04:58:10;7.15;;;3.00;;
28431;SDS011;15664;51.302;7.744;2023-05-10T05:00:36;9.20;;;3.23;;
28431;SDS011;15664;51.302;7.744;2023-05-10T05:03:01;7.17;;;2.87;;
28431;SDS011;15664;51.302;7.744;2023-05-10T05:05:26;9.80;;;3.00;;
28431;SDS011;15664;51.302;7.744;2023-05-10T05:07:52;9.07;;;3.05;;
28431;SDS011;15664;51.302;7.744;2023-05-10T05:10:17;7.93;;;2.50;;
28431;SDS011;15664;51.302;7.744;2023-05-10T05:12:43;8.27;;;2.60;;
28431;SDS011;15664;51.302;7.744;2023-05-10T05:15:08;6.67;;;2.37;;
28431;SDS011;15664;51.302;7.744;2023-05-10T05:17:34;6.47;;;2.20;;
28431;SDS011;15664;51.302;7.744;2023-05-10T05:20:00;9.57;;;2.40;;
28431;SDS011;15664;51.302;7.744;2023-05-10T05:22:26;6.50;;;2.03;;
28431;SDS011;15664;51.302;7.744;2023-05-10T05:24:56;6.35;;;2.42;;
28431;SDS011;15664;51.302;7.744;2023-05-10T05:27:22;6.80;;;2.80;;
28431;SDS011;15664;51.302;7.744;2023-05-10T05:29:49;8.15;;;2.60;;
28431;SDS011;15664;51.302;7.744;2023-05-10T05:32:15;8.70;;;2.67;;
28431;SDS011;15664;51.302;7.744;2023-05-10T05:34:40;9.10;;;3.13;;
28431;SDS011;15664;51.302;7.744;2023-05-10T05:37:06;8.85;;;3.28;;
28431;SDS011;15664;51.302;7.744;2023-05-10T05:39:31;8.90;;;3.40;;
28431;SDS011;15664;51.302;7.744;2023-05-10T05:41:57;8.57;;;3.40;;
28431;SDS011;15664;51.302;7.744;2023-05-10T05:44:23;8.77;;;3.85;;
28431;SDS011;15664;51.302;7.744;2023-05-10T05:46:49;12.13;;;3.63;;
28431;SDS011;15664;51.302;7.744;2023-05-10T05:49:14;10.97;;;3.43;;
28431;SDS011;15664;51.302;7.744;2023-05-10T05:51:40;10.55;;;3.63;;
28431;SDS011;15664;51.302;7.744;2023-05-10T05:54:05;11.37;;;3.93;;
28431;SDS011;15664;51.302;7.744;2023-05-10T05:56:31;13.83;;;4.80;;
28431;SDS011;15664;51.302;7.744;2023-05-10T05:58:56;12.03;;;4.37;;
28431;SDS011;15664;51.302;7.744;2023-05-10T06:01:22;14.70;;;5.05;;
28431;SDS011;15664;51.302;7.744;2023-05-10T06:03:47;16.17;;;5.40;;
28431;SDS011;15664;51.302;7.744;2023-05-10T06:06:13;19.17;;;5.80;;
28431;SDS011;15664;51.302;7.744;2023-05-10T06:08:38;18.07;;;5.43;;
28431;SDS011;15664;51.302;7.744;2023-05-10T06:11:04;16.17;;;5.03;;
28431;SDS011;15664;51.302;7.744;2023-05-10T06:13:29;19.93;;;5.57;;
28431;SDS011;15664;51.302;7.744;2023-05-10T06:15:57;15.88;;;5.90;;
28431;SDS011;15664;51.302;7.744;2023-05-10T06:18:23;17.53;;;6.17;;
28431;SDS011;15664;51.302;7.744;2023-05-10T06:20:49;18.33;;;6.00;;
28431;SDS011;15664;51.302;7.744;2023-05-10T06:23:15;11.98;;;4.78;;
28431;SDS011;15664;51.302;7.744;2023-05-10T06:25:41;20.60;;;6.13;;
28431;SDS011;15664;51.302;7.744;2023-05-10T06:28:06;14.87;;;5.77;;
28431;SDS011;15664;51.302;7.744;2023-05-10T06:30:31;20.58;;;6.90;;
28431;SDS011;15664;51.302;7.744;2023-05-10T06:32:57;23.50;;;6.57;;
28431;SDS011;15664;51.302;7.744;2023-05-10T06:35:22;22.53;;;7.23;;
28431;SDS011;15664;51.302;7.744;2023-05-10T06:37:48;22.55;;;7.22;;
28431;SDS011;15664;51.302;7.744;2023-05-10T06:40:14;16.67;;;5.83;;
28431;SDS011;15664;51.302;7.744;2023-05-10T06:42:40;21.92;;;7.32;;
28431;SDS011;15664;51.302;7.744;2023-05-10T06:45:05;26.87;;;7.93;;
28431;SDS011;15664;51.302;7.744;2023-05-10T06:47:31;23.15;;;7.18;;
28431;SDS011;15664;51.302;7.744;2023-05-10T06:49:56;20.40;;;6.63;;
28431;SDS011;15664;51.302;7.744;2023-05-10T06:52:22;23.57;;;8.10;;
28431;SDS011;15664;51.302;7.744;2023-05-10T06:54:47;25.27;;;8.00;;
28431;SDS011;15664;51.302;7.744;2023-05-10T06:57:12;17.73;;;7.00;;
28431;SDS011;15664;51.302;7.744;2023-05-10T06:59:38;19.20;;;6.83;;
28431;SDS011;15664;51.302;7.744;2023-05-10T07:02:03;19.10;;;7.60;;
28431;SDS011;15664;51.302;7.744;2023-05-10T07:04:29;25.63;;;7.20;;
28431;SDS011;15664;51.302;7.744;2023-05-10T07:06:54;19.20;;;6.67;;
28431;SDS011;15664;51.302;7.744;2023-05-10T07:09:19;20.23;;;7.03;;
28431;SDS011;15664;51.302;7.744;2023-05-10T07:11:45;20.67;;;7.27;;
28431;SDS011;15664;51.302;7.744;2023-05-10T07:14:11;15.82;;;6.00;;
28431;SDS011;15664;51.302;7.744;2023-05-10T07:16:36;20.37;;;7.30;;
28431;SDS011;15664;51.302;7.744;2023-05-10T07:19:01;25.00;;;8.13;;
28431;SDS011;15664;51.302;7.744;2023-05-10T07:21:27;24.50;;;6.00;;
28431;SDS011;15664;51.302;7.744;2023-05-10T07:23:54;21.13;;;6.10;;
28431;SDS011;15664;51.302;7.744;2023-05-10T07:26:19;26.00;;;7.78;;
28431;SDS011;15664;51.302;7.744;2023-05-10T07:28:46;19.23;;;6.80;;
28431;SDS011;15664;51.302;7.744;2023-05-10T07:31:11;24.90;;;7.37;;
28431;SDS011;15664;51.302;7.744;2023-05-10T07:33:37;22.73;;;7.40;;
28431;SDS011;15664;51.302;7.744;2023-05-10T07:36:02;17.23;;;6.43;;
28431;SDS011;15664;51.302;7.744;2023-05-10T07:38:28;19.83;;;6.77;;
28431;SDS011;15664;51.302;7.744;2023-05-10T07:40:54;16.77;;;5.97;;
28431;SDS011;15664;51.302;7.744;2023-05-10T07:43:19;18.47;;;6.47;;
28431;SDS011;15664;51.302;7.744;2023-05-10T07:45:44;15.82;;;5.05;;
28431;SDS011;15664;51.302;7.744;2023-05-10T07:48:10;18.10;;;6.23;;
28431;SDS011;15664;51.302;7.744;2023-05-10T07:50:35;15.83;;;5.73;;
28431;SDS011;15664;51.302;7.744;2023-05-10T07:53:00;17.57;;;5.13;;
28431;SDS011;15664;51.302;7.744;2023-05-10T07:55:26;12.97;;;5.13;;
28431;SDS011;15664;51.302;7.744;2023-05-10T07:57:51;16.20;;;6.38;;
28431;SDS011;15664;51.302;7.744;2023-05-10T08:00:18;16.33;;;5.43;;
28431;SDS011;15664;51.302;7.744;2023-05-10T08:02:43;16.40;;;6.15;;
28431;SDS011;15664;51.302;7.744;2023-05-10T08:05:09;14.83;;;5.23;;
28431;SDS011;15664;51.302;7.744;2023-05-10T08:07:34;14.80;;;5.13;;
28431;SDS011;15664;51.302;7.744;2023-05-10T08:10:00;15.23;;;5.35;;
28431;SDS011;15664;51.302;7.744;2023-05-10T08:12:25;13.97;;;5.50;;
28431;SDS011;15664;51.302;7.744;2023-05-10T08:14:51;16.07;;;6.37;;
28431;SDS011;15664;51.302;7.744;2023-05-10T08:17:16;15.03;;;5.10;;
28431;SDS011;15664;51.302;7.744;2023-05-10T08:19:41;16.50;;;6.00;;
28431;SDS011;15664;51.302;7.744;2023-05-10T08:22:07;12.67;;;5.67;;
28431;SDS011;15664;51.302;7.744;2023-05-10T08:24:32;12.38;;;4.63;;
28431;SDS011;15664;51.302;7.744;2023-05-10T08:26:59;11.67;;;5.03;;
28431;SDS011;15664;51.302;7.744;2023-05-10T08:29:26;12.60;;;5.20;;
28431;SDS011;15664;51.302;7.744;2023-05-10T08:31:51;14.70;;;5.27;;
28431;SDS011;15664;51.302;7.744;2023-05-10T08:34:16;7.93;;;3.20;;
28431;SDS011;15664;51.302;7.744;2023-05-10T08:36:42;13.33;;;5.20;;
28431;SDS011;15664;51.302;7.744;2023-05-10T08:39:08;11.77;;;4.87;;
28431;SDS011;15664;51.302;7.744;2023-05-10T08:41:33;12.53;;;4.53;;
28431;SDS011;15664;51.302;7.744;2023-05-10T08:43:58;12.10;;;4.67;;
28431;SDS011;15664;51.302;7.744;2023-05-10T08:46:25;11.88;;;4.65;;
28431;SDS011;15664;51.302;7.744;2023-05-10T08:48:51;13.68;;;4.60;;
28431;SDS011;15664;51.302;7.744;2023-05-10T08:51:19;9.90;;;4.13;;
28431;SDS011;15664;51.302;7.744;2023-05-10T08:53:45;11.70;;;4.45;;
28431;SDS011;15664;51.302;7.744;2023-05-10T08:56:10;13.93;;;4.57;;
28431;SDS011;15664;51.302;7.744;2023-05-10T08:58:36;12.05;;;4.47;;
28431;SDS011;15664;51.302;7.744;2023-05-10T09:01:03;14.20;;;4.63;;
28431;SDS011;15664;51.302;7.744;2023-05-10T09:03:28;15.85;;;4.90;;
28431;SDS011;15664;51.302;7.744;2023-05-10T09:05:54;12.48;;;5.03;;
28431;SDS011;15664;51.302;7.744;2023-05-10T09:08:22;11.67;;;5.10;;
28431;SDS011;15664;51.302;7.744;2023-05-10T09:10:50;12.18;;;5.05;;
28431;SDS011;15664;51.302;7.744;2023-05-10T09:13:15;8.27;;;3.65;;
28431;SDS011;15664;51.302;7.744;2023-05-10T09:15:43;11.03;;;4.37;;
28431;SDS011;15664;51.302;7.744;2023-05-10T09:18:08;7.93;;;2.90;;
28431;SDS011;15664;51.302;7.744;2023-05-10T09:20:34;9.53;;;4.70;;
28431;SDS011;15664;51.302;7.744;2023-05-10T09:22:59;7.97;;;3.50;;
28431;SDS011;15664;51.302;7.744;2023-05-10T09:25:24;11.87;;;4.03;;
28431;SDS011;15664;51.302;7.744;2023-05-10T09:27:50;10.23;;;3.60;;
28431;SDS011;15664;51.302;7.744;2023-05-10T09:30:16;9.40;;;4.30;;
28431;SDS011;15664;51.302;7.744;2023-05-10T09:32:43;8.75;;;4.20;;
28431;SDS011;15664;51.302;7.744;2023-05-10T09:35:12;12.68;;;3.75;;
28431;SDS011;15664;51.302;7.744;2023-05-10T09:37:41;8.70;;;3.03;;
28431;SDS011;15664;51.302;7.744;2023-05-10T09:40:07;6.68;;;2.88;;
28431;SDS011;15664;51.302;7.744;2023-05-10T09:42:33;10.43;;;4.05;;
28431;SDS011;15664;51.302;7.744;2023-05-10T09:45:02;10.68;;;3.85;;
28431;SDS011;15664;51.302;7.744;2023-05-10T09:47:28;9.70;;;3.73;;
28431;SDS011;15664;51.302;7.744;2023-05-10T09:49:53;9.20;;;3.25;;
28431;SDS011;15664;51.302;7.744;2023-05-10T09:52:22;8.50;;;2.92;;
28431;SDS011;15664;51.302;7.744;2023-05-10T09:54:54;8.90;;;3.23;;
28431;SDS011;15664;51.302;7.744;2023-05-10T09:57:23;10.70;;;3.65;;
28431;SDS011;15664;51.302;7.744;2023-05-10T09:59:49;8.00;;;3.73;;
28431;SDS011;15664;51.302;7.744;2023-05-10T10:02:15;8.57;;;3.80;;
28431;SDS011;15664;51.302;7.744;2023-05-10T10:04:41;9.65;;;3.35;;
28431;SDS011;15664;51.302;7.744;2023-05-10T10:07:07;9.53;;;3.20;;
28431;SDS011;15664;51.302;7.744;2023-05-10T10:09:33;8.82;;;3.45;;
28431;SDS011;15664;51.302;7.744;2023-05-10T10:12:02;7.10;;;3.17;;
28431;SDS011;15664;51.302;7.744;2023-05-10T10:14:28;8.23;;;3.38;;
28431;SDS011;15664;51.302;7.744;2023-05-10T10:16:53;8.13;;;3.33;;
28431;SDS011;15664;51.302;7.744;2023-05-10T10:19:19;8.73;;;3.47;;
28431;SDS011;15664;51.302;7.744;2023-05-10T10:21:45;7.53;;;3.03;;
28431;SDS011;15664;51.302;7.744;2023-05-10T10:24:11;7.20;;;3.05;;
28431;SDS011;15664;51.302;7.744;2023-05-10T10:26:36;8.70;;;3.17;;
28431;SDS011;15664;51.302;7.744;2023-05-10T10:31:51;7.88;;;3.40;;
28431;SDS011;15664;51.302;7.744;2023-05-10T10:34:30;7.93;;;3.17;;
28431;SDS011;15664;51.302;7.744;2023-05-10T10:36:56;7.15;;;3.00;;
28431;SDS011;15664;51.302;7.744;2023-05-10T10:39:23;8.30;;;2.50;;
28431;SDS011;15664;51.302;7.744;2023-05-10T10:47:03;8.68;;;2.83;;
28431;SDS011;15664;51.302;7.744;2023-05-10T10:49:31;7.82;;;3.10;;
28431;SDS011;15664;51.302;7.744;2023-05-10T10:54:47;7.10;;;2.90;;
28431;SDS011;15664;51.302;7.744;2023-05-10T10:57:14;6.87;;;3.00;;
28431;SDS011;15664;51.302;7.744;2023-05-10T10:59:41;4.22;;;2.15;;
28431;SDS011;15664;51.302;7.744;2023-05-10T11:02:07;8.93;;;3.30;;
28431;SDS011;15664;51.302;7.744;2023-05-10T11:04:41;7.33;;;3.20;;
28431;SDS011;15664;51.302;7.744;2023-05-10T11:07:16;7.88;;;3.15;;
28431;SDS011;15664;51.302;7.744;2023-05-10T11:09:42;8.32;;;3.50;;
28431;SDS011;15664;51.302;7.744;2023-05-10T11:12:08;8.27;;;3.47;;
28431;SDS011;15664;51.302;7.744;2023-05-10T11:14:33;4.87;;;2.30;;
28431;SDS011;15664;51.302;7.744;2023-05-10T11:16:58;6.30;;;2.73;;
28431;SDS011;15664;51.302;7.744;2023-05-10T11:19:27;5.68;;;2.17;;
28431;SDS011;15664;51.302;7.744;2023-05-10T11:24:30;6.65;;;2.53;;
28431;SDS011;15664;51.302;7.744;2023-05-10T11:26:55;8.50;;;3.90;;
28431;SDS011;15664;51.302;7.744;2023-05-10T11:29:21;8.13;;;3.33;;
28431;SDS011;15664;51.302;7.744;2023-05-10T11:31:47;10.43;;;3.77;;
28431;SDS011;15664;51.302;7.744;2023-05-10T11:34:26;8.95;;;3.63;;
28431;SDS011;15664;51.302;7.744;2023-05-10T11:36:52;10.45;;;3.90;;
28431;SDS011;15664;51.302;7.744;2023-05-10T11:39:19;11.53;;;4.60;;
28431;SDS011;15664;51.302;7.744;2023-05-10T11:41:46;10.65;;;3.70;;
28431;SDS011;15664;51.302;7.744;2023-05-10T11:44:12;8.50;;;3.35;;
28431;SDS011;15664;51.302;7.744;2023-05-10T11:46:37;8.53;;;3.77;;
28431;SDS011;15664;51.302;7.744;2023-05-10T11:49:02;13.57;;;4.90;;
28431;SDS011;15664;51.302;7.744;2023-05-10T11:51:33;9.65;;;3.92;;
28431;SDS011;15664;51.302;7.744;2023-05-10T11:53:58;11.20;;;4.30;;
28431;SDS011;15664;51.302;7.744;2023-05-10T11:56:24;14.00;;;4.83;;
28431;SDS011;15664;51.302;7.744;2023-05-10T11:58:57;12.90;;;4.13;;
28431;SDS011;15664;51.302;7.744;2023-05-10T12:01:23;12.13;;;5.30;;
28431;SDS011;15664;51.302;7.744;2023-05-10T12:03:49;11.80;;;4.80;;
28431;SDS011;15664;51.302;7.744;2023-05-10T12:06:15;15.95;;;5.35;;
28431;SDS011;15664;51.302;7.744;2023-05-10T12:08:44;19.10;;;6.17;;
28431;SDS011;15664;51.302;7.744;2023-05-10T12:11:11;21.17;;;7.53;;
28431;SDS011;15664;51.302;7.744;2023-05-10T12:13:37;18.67;;;6.82;;
28431;SDS011;15664;51.302;7.744;2023-05-10T12:16:12;15.80;;;6.40;;
28431;SDS011;15664;51.302;7.744;2023-05-10T12:18:38;13.90;;;5.27;;
28431;SDS011;15664;51.302;7.744;2023-05-10T12:21:05;24.90;;;7.28;;
28431;SDS011;15664;51.302;7.744;2023-05-10T12:23:30;22.80;;;8.27;;
28431;SDS011;15664;51.302;7.744;2023-05-10T12:26:01;12.23;;;6.33;;
28431;SDS011;15664;51.302;7.744;2023-05-10T12:28:29;17.02;;;6.70;;
28431;SDS011;15664;51.302;7.744;2023-05-10T12:30:55;20.50;;;6.55;;
28431;SDS011;15664;51.302;7.744;2023-05-10T12:33:22;20.13;;;7.37;;
28431;SDS011;15664;51.302;7.744;2023-05-10T12:35:48;21.20;;;7.53;;
28431;SDS011;15664;51.302;7.744;2023-05-10T12:40:53;13.67;;;5.70;;
28431;SDS011;15664;51.302;7.744;2023-05-10T12:43:19;19.07;;;7.03;;
28431;SDS011;15664;51.302;7.744;2023-05-10T12:45:44;16.42;;;6.47;;
28431;SDS011;15664;51.302;7.744;2023-05-10T12:48:13;14.75;;;5.90;;
28431;SDS011;15664;51.302;7.744;2023-05-10T12:50:38;14.17;;;5.17;;
28431;SDS011;15664;51.302;7.744;2023-05-10T12:53:04;22.43;;;7.27;;
28431;SDS011;15664;51.302;7.744;2023-05-10T12:55:29;16.57;;;6.50;;
28431;SDS011;15664;51.302;7.744;2023-05-10T12:57:54;22.43;;;8.40;;
28431;SDS011;15664;51.302;7.744;2023-05-10T13:00:19;17.27;;;5.60;;
28431;SDS011;15664;51.302;7.744;2023-05-10T13:02:45;13.47;;;4.53;;
28431;SDS011;15664;51.302;7.744;2023-05-10T13:05:10;19.07;;;7.13;;
28431;SDS011;15664;51.302;7.744;2023-05-10T13:07:36;17.48;;;7.15;;
28431;SDS011;15664;51.302;7.744;2023-05-10T13:10:02;12.80;;;5.73;;
28431;SDS011;15664;51.302;7.744;2023-05-10T13:12:27;17.52;;;6.30;;
28431;SDS011;15664;51.302;7.744;2023-05-10T13:14:52;15.27;;;5.85;;
28431;SDS011;15664;51.302;7.744;2023-05-10T13:17:18;14.00;;;5.05;;
28431;SDS011;15664;51.302;7.744;2023-05-10T13:19:43;13.13;;;4.83;;
28431;SDS011;15664;51.302;7.744;2023-05-10T13:22:08;13.80;;;5.17;;
28431;SDS011;15664;51.302;7.744;2023-05-10T13:24:34;14.70;;;5.97;;
28431;SDS011;15664;51.302;7.744;2023-05-10T13:26:59;14.17;;;4.67;;
28431;SDS011;15664;51.302;7.744;2023-05-10T13:29:25;10.32;;;4.15;;
28431;SDS011;15664;51.302;7.744;2023-05-10T13:31:50;9.67;;;3.33;;
28431;SDS011;15664;51.302;7.744;2023-05-10T13:34:16;12.50;;;5.00;;
28431;SDS011;15664;51.302;7.744;2023-05-10T13:36:41;11.40;;;4.67;;
28431;SDS011;15664;51.302;7.744;2023-05-10T13:39:07;13.63;;;4.93;;
28431;SDS011;15664;51.302;7.744;2023-05-10T13:41:32;11.93;;;3.97;;
28431;SDS011;15664;51.302;7.744;2023-05-10T13:43:57;8.60;;;3.07;;
28431;SDS011;15664;51.302;7.744;2023-05-10T13:46:23;11.30;;;4.37;;
28431;SDS011;15664;51.302;7.744;2023-05-10T13:48:48;13.45;;;4.22;;
28431;SDS011;15664;51.302;7.744;2023-05-10T13:51:13;10.93;;;4.67;;
28431;SDS011;15664;51.302;7.744;2023-05-10T13:53:39;8.47;;;4.07;;
28431;SDS011;15664;51.302;7.744;2023-05-10T13:56:04;10.18;;;3.67;;
28431;SDS011;15664;51.302;7.744;2023-05-10T13:58:29;11.63;;;4.57;;
28431;SDS011;15664;51.302;7.744;2023-05-10T14:00:55;11.93;;;4.37;;
28431;SDS011;15664;51.302;7.744;2023-05-10T14:03:20;9.87;;;3.17;;
28431;SDS011;15664;51.302;7.744;2023-05-10T14:05:46;11.33;;;4.57;;
28431;SDS011;15664;51.302;7.744;2023-05-10T14:08:13;11.38;;;4.88;;
28431;SDS011;15664;51.302;7.744;2023-05-10T14:10:38;12.67;;;4.60;;
28431;SDS011;15664;51.302;7.744;2023-05-10T14:13:04;14.45;;;5.57;;
28431;SDS011;15664;51.302;7.744;2023-05-10T14:15:30;12.33;;;4.87;;
28431;SDS011;15664;51.302;7.744;2023-05-10T14:17:55;9.30;;;4.07;;
28431;SDS011;15664;51.302;7.744;2023-05-10T14:20:21;15.90;;;5.23;;
28431;SDS011;15664;51.302;7.744;2023-05-10T14:22:46;10.83;;;4.97;;
28431;SDS011;15664;51.302;7.744;2023-05-10T14:25:11;15.00;;;5.60;;
28431;SDS011;15664;51.302;7.744;2023-05-10T14:27:37;12.40;;;4.80;;
28431;SDS011;15664;51.302;7.744;2023-05-10T14:30:02;16.60;;;6.07;;
28431;SDS011;15664;51.302;7.744;2023-05-10T14:32:28;12.10;;;4.85;;
28431;SDS011;15664;51.302;7.744;2023-05-10T14:34:53;13.27;;;5.20;;
28431;SDS011;15664;51.302;7.744;2023-05-10T14:37:18;18.10;;;6.17;;
28431;SDS011;15664;51.302;7.744;2023-05-10T14:39:44;16.13;;;5.20;;
28431;SDS011;15664;51.302;7.744;2023-05-10T14:42:09;11.80;;;5.63;;
28431;SDS011;15664;51.302;7.744;2023-05-10T14:44:34;14.70;;;5.20;;
28431;SDS011;15664;51.302;7.744;2023-05-10T14:47:00;15.80;;;5.17;;
28431;SDS011;15664;51.302;7.744;2023-05-10T14:49:25;12.37;;;4.63;;
28431;SDS011;15664;51.302;7.744;2023-05-10T14:51:51;9.35;;;4.25;;
28431;SDS011;15664;51.302;7.744;2023-05-10T14:54:17;12.02;;;4.97;;
28431;SDS011;15664;51.302;7.744;2023-05-10T14:56:42;13.70;;;5.00;;
28431;SDS011;15664;51.302;7.744;2023-05-10T14:59:07;7.17;;;3.30;;
28431;SDS011;15664;51.302;7.744;2023-05-10T15:01:33;14.73;;;5.67;;
28431;SDS011;15664;51.302;7.744;2023-05-10T15:04:00;14.93;;;4.93;;
28431;SDS011;15664;51.302;7.744;2023-05-10T15:06:32;14.60;;;5.20;;
28431;SDS011;15664;51.302;7.744;2023-05-10T15:08:58;10.57;;;4.55;;
28431;SDS011;15664;51.302;7.744;2023-05-10T15:11:23;13.07;;;5.10;;